createdAt,value
2018-12-26T00:00:02.635Z,4.70
2018-12-26T00:02:44.183Z,4.70
2018-12-26T00:05:25.924Z,4.70
2018-12-26T00:08:07.857Z,4.70
2018-12-26T00:10:49.872Z,4.60
2018-12-26T00:13:31.522Z,4.60
2018-12-26T00:16:13.029Z,4.60
2018-12-26T00:18:54.500Z,4.60
2018-12-26T00:21:36.037Z,4.60
2018-12-26T00:24:17.258Z,4.60
2018-12-26T00:26:59.100Z,4.60
2018-12-26T00:29:41.348Z,4.60
2018-12-26T00:32:22.405Z,4.60
2018-12-26T00:35:03.442Z,4.60
2018-12-26T00:37:46.925Z,4.60
2018-12-26T00:40:28.742Z,4.60
2018-12-26T00:43:10.299Z,4.60
2018-12-26T00:45:51.630Z,4.60
2018-12-26T00:48:33.882Z,4.60
2018-12-26T00:51:15.164Z,4.60
2018-12-26T00:53:56.724Z,4.60
2018-12-26T00:56:38.283Z,4.60
2018-12-26T00:59:19.507Z,4.60
2018-12-26T01:02:00.828Z,4.60
2018-12-26T01:04:42.834Z,4.50
2018-12-26T01:07:25.348Z,4.50
2018-12-26T01:10:06.495Z,4.50
2018-12-26T01:12:49.967Z,4.60
2018-12-26T01:15:31.995Z,4.60
2018-12-26T01:18:13.640Z,4.50
2018-12-26T01:20:55.286Z,4.50
2018-12-26T01:23:36.326Z,4.50
2018-12-26T01:26:19.269Z,4.50
2018-12-26T01:29:01.888Z,4.60
2018-12-26T01:31:42.956Z,4.60
2018-12-26T01:34:24.998Z,4.50
2018-12-26T01:37:06.476Z,4.50
2018-12-26T01:39:49.243Z,4.50
2018-12-26T01:42:31.826Z,4.50
2018-12-26T01:45:14.233Z,4.50
2018-12-26T01:47:56.663Z,4.50
2018-12-26T01:50:39.452Z,4.40
2018-12-26T01:53:22.181Z,4.40
2018-12-26T01:56:04.712Z,4.40
2018-12-26T01:58:47.594Z,4.40
2018-12-26T02:01:29.191Z,4.40
2018-12-26T02:04:10.387Z,4.40
2018-12-26T02:06:51.740Z,4.40
2018-12-26T02:09:33.139Z,4.40
2018-12-26T02:12:14.163Z,4.40
2018-12-26T02:14:56.569Z,4.30
2018-12-26T02:17:38.095Z,4.30
2018-12-26T02:20:19.936Z,4.30
2018-12-26T02:23:01.749Z,4.40
2018-12-26T02:25:43.193Z,4.40
2018-12-26T02:28:24.594Z,4.30
2018-12-26T02:31:06.243Z,4.30
2018-12-26T02:33:47.727Z,4.30
2018-12-26T02:36:28.825Z,4.40
2018-12-26T02:39:10.024Z,4.30
2018-12-26T02:41:51.758Z,4.30
2018-12-26T02:44:33.355Z,4.30
2018-12-26T02:47:14.951Z,4.30
2018-12-26T02:49:56.794Z,4.30
2018-12-26T02:52:38.106Z,4.30
2018-12-26T02:55:07.367Z,4.30
2018-12-26T02:57:55.960Z,4.20
2018-12-26T03:00:44.643Z,4.20
2018-12-26T03:03:33.220Z,4.20
2018-12-26T03:06:21.922Z,4.20
2018-12-26T03:09:10.440Z,4.20
2018-12-26T03:11:59.249Z,4.20
2018-12-26T03:14:47.925Z,4.20
2018-12-26T03:17:36.755Z,4.20
2018-12-26T03:20:25.425Z,4.10
2018-12-26T03:23:14.073Z,4.20
2018-12-26T03:26:02.742Z,4.10
2018-12-26T03:28:51.504Z,4.10
2018-12-26T03:31:59.490Z,4.10
2018-12-26T03:34:48.034Z,4.00
2018-12-26T03:37:36.626Z,4.00
2018-12-26T03:40:25.223Z,4.00
2018-12-26T03:43:13.909Z,4.00
2018-12-26T03:45:56.709Z,4.00
2018-12-26T03:48:38.698Z,4.00
2018-12-26T03:51:19.884Z,4.00
2018-12-26T03:54:01.238Z,4.00
2018-12-26T03:56:44.158Z,3.90
2018-12-26T03:59:25.799Z,3.90
2018-12-26T04:02:08.250Z,3.90
2018-12-26T04:04:50.149Z,3.90
2018-12-26T04:07:32.443Z,3.90
2018-12-26T04:10:13.826Z,3.90
2018-12-26T04:12:54.861Z,3.90
2018-12-26T04:15:38.066Z,3.80
2018-12-26T04:18:19.604Z,3.80
2018-12-26T04:27:01.889Z,4.00
2018-12-26T04:29:43.129Z,3.90
2018-12-26T04:32:24.164Z,3.80
2018-12-26T04:35:05.703Z,3.80
2018-12-26T04:37:47.162Z,3.80
2018-12-26T04:40:28.899Z,3.80
2018-12-26T04:43:09.855Z,3.70
2018-12-26T04:45:50.973Z,3.70
2018-12-26T04:48:32.476Z,3.70
2018-12-26T04:51:14.018Z,3.70
2018-12-26T04:53:55.172Z,3.70
2018-12-26T04:56:36.546Z,3.70
2018-12-26T04:59:17.769Z,3.60
2018-12-26T05:01:58.798Z,3.70
2018-12-26T05:04:40.029Z,3.60
2018-12-26T05:07:21.117Z,3.60
2018-12-26T05:10:02.190Z,3.50
2018-12-26T05:12:43.559Z,3.40
2018-12-26T05:15:24.853Z,3.50
2018-12-26T05:18:06.605Z,3.40
2018-12-26T05:20:48.063Z,3.40
2018-12-26T05:23:29.448Z,3.30
2018-12-26T05:26:11.099Z,3.30
2018-12-26T05:28:52.946Z,3.20
2018-12-26T05:31:34.855Z,3.20
2018-12-26T05:34:16.417Z,3.20
2018-12-26T05:36:57.567Z,3.10
2018-12-26T05:39:38.946Z,3.10
2018-12-26T05:42:20.089Z,3.10
2018-12-26T05:45:01.285Z,3.10
2018-12-26T05:47:42.528Z,3.10
2018-12-26T05:50:24.221Z,3.10
2018-12-26T05:53:05.999Z,3.00
2018-12-26T05:55:47.574Z,3.00
2018-12-26T05:58:29.372Z,3.00
2018-12-26T06:01:10.849Z,3.00
2018-12-26T06:03:52.546Z,3.00
2018-12-26T06:06:34.329Z,3.00
2018-12-26T06:09:15.590Z,3.00
2018-12-26T06:11:57.405Z,3.00
2018-12-26T06:14:39.116Z,3.00
2018-12-26T06:17:21.086Z,3.00
2018-12-26T06:20:02.124Z,3.00
2018-12-26T06:22:43.415Z,3.00
2018-12-26T06:25:24.602Z,3.00
2018-12-26T06:28:05.601Z,3.00
2018-12-26T06:30:47.337Z,3.00
2018-12-26T06:33:30.460Z,3.00
2018-12-26T06:36:11.939Z,3.00
2018-12-26T06:38:53.692Z,3.00
2018-12-26T06:41:35.099Z,3.00
2018-12-26T06:44:16.185Z,3.00
2018-12-26T06:46:57.907Z,3.00
2018-12-26T06:49:39.264Z,3.10
2018-12-26T06:52:20.198Z,3.10
2018-12-26T06:55:01.440Z,3.10
2018-12-26T06:57:44.112Z,3.10
2018-12-26T07:00:25.973Z,3.10
2018-12-26T07:03:06.983Z,3.10
2018-12-26T07:05:48.862Z,3.10
2018-12-26T07:08:30.747Z,3.10
2018-12-26T07:11:12.376Z,3.10
2018-12-26T07:13:54.188Z,3.20
2018-12-26T07:16:35.760Z,3.10
2018-12-26T07:19:17.218Z,3.20
2018-12-26T07:21:58.607Z,3.20
2018-12-26T07:24:40.029Z,3.20
2018-12-26T07:27:21.225Z,3.20
2018-12-26T07:30:02.893Z,3.20
2018-12-26T07:32:53.976Z,3.20
2018-12-26T07:38:19.633Z,3.20
2018-12-26T07:41:06.036Z,3.20
2018-12-26T07:52:25.716Z,3.10
2018-12-26T07:55:07.412Z,3.20
2018-12-26T07:57:48.981Z,3.20
2018-12-26T08:00:30.434Z,3.20
2018-12-26T08:03:11.514Z,3.20
2018-12-26T08:05:53.286Z,3.20
2018-12-26T08:08:34.741Z,3.20
2018-12-26T08:11:16.610Z,3.20
2018-12-26T08:13:58.695Z,3.30
2018-12-26T08:16:39.966Z,3.30
2018-12-26T08:19:22.095Z,3.30
2018-12-26T08:22:03.998Z,3.30
2018-12-26T08:24:45.348Z,3.30
2018-12-26T08:27:26.737Z,3.30
2018-12-26T08:30:08.634Z,3.40
2018-12-26T08:32:50.145Z,3.40
2018-12-26T08:35:31.394Z,3.40
2018-12-26T08:38:13.086Z,3.40
2018-12-26T08:40:56.123Z,3.40
2018-12-26T08:43:38.039Z,3.50
2018-12-26T08:46:19.721Z,3.50
2018-12-26T08:49:01.711Z,3.50
2018-12-26T08:51:42.788Z,3.50
2018-12-26T08:54:23.887Z,3.50
2018-12-26T08:57:05.142Z,3.60
2018-12-26T08:59:46.341Z,3.60
2018-12-26T09:02:27.534Z,3.60
2018-12-26T09:05:10.488Z,3.60
2018-12-26T09:07:51.562Z,3.60
2018-12-26T09:10:33.355Z,3.60
2018-12-26T09:13:14.534Z,3.60
2018-12-26T09:15:55.427Z,3.60
2018-12-26T09:18:36.809Z,3.60
2018-12-26T09:21:18.367Z,3.60
2018-12-26T09:23:59.439Z,3.60
2018-12-26T09:26:41.322Z,3.60
2018-12-26T09:32:21.344Z,3.60
2018-12-26T09:35:03.006Z,3.60
2018-12-26T09:37:44.748Z,3.60
2018-12-26T09:40:25.908Z,3.60
2018-12-26T09:43:07.029Z,3.60
2018-12-26T09:45:48.232Z,3.70
2018-12-26T09:48:29.626Z,3.70
2018-12-26T09:51:10.852Z,3.70
2018-12-26T09:53:53.038Z,3.70
2018-12-26T09:56:34.081Z,3.70
2018-12-26T09:59:15.778Z,3.70
2018-12-26T10:01:56.666Z,3.70
2018-12-26T10:04:37.930Z,3.70
2018-12-26T10:07:19.087Z,3.70
2018-12-26T10:10:00.201Z,3.70
2018-12-26T10:12:41.613Z,3.70
2018-12-26T10:18:55.622Z,3.70
2018-12-26T10:21:37.024Z,3.80
2018-12-26T10:24:18.685Z,3.80
2018-12-26T10:27:00.610Z,3.80
2018-12-26T10:29:42.474Z,3.80
2018-12-26T10:32:23.384Z,3.80
2018-12-26T10:35:04.641Z,3.80
2018-12-26T10:37:46.171Z,3.90
2018-12-26T10:40:28.199Z,3.80
2018-12-26T10:43:09.826Z,3.80
2018-12-26T10:45:50.783Z,3.80
2018-12-26T10:48:32.438Z,3.80
2018-12-26T10:51:12.143Z,3.80
2018-12-26T10:54:00.677Z,3.80
2018-12-26T10:56:49.422Z,3.80
2018-12-26T11:02:27.327Z,3.80
2018-12-26T11:05:15.802Z,3.80
2018-12-26T11:08:04.372Z,3.80
2018-12-26T11:10:52.952Z,3.80
2018-12-26T11:13:41.553Z,3.80
2018-12-26T11:16:30.118Z,3.80
2018-12-26T11:19:19.594Z,3.80
2018-12-26T11:22:08.110Z,3.80
2018-12-26T11:24:56.601Z,3.80
2018-12-26T11:27:45.101Z,3.80
2018-12-26T11:30:33.642Z,3.80
2018-12-26T11:33:22.111Z,3.80
2018-12-26T11:36:10.755Z,3.80
2018-12-26T11:38:59.346Z,3.80
2018-12-26T11:41:47.889Z,3.80
2018-12-26T11:44:28.814Z,3.80
2018-12-26T11:47:10.511Z,3.80
2018-12-26T11:49:52.277Z,3.80
2018-12-26T11:52:34.112Z,3.80
2018-12-26T11:55:16.619Z,3.80
2018-12-26T11:57:58.420Z,3.80
2018-12-26T12:00:39.784Z,3.80
2018-12-26T12:03:21.149Z,3.80
2018-12-26T12:06:02.925Z,3.80
2018-12-26T12:08:44.599Z,3.90
2018-12-26T12:11:25.885Z,3.90
2018-12-26T12:14:07.526Z,3.90
2018-12-26T12:16:49.061Z,3.90
2018-12-26T12:19:30.787Z,3.90
2018-12-26T12:22:12.191Z,3.90
2018-12-26T12:24:53.402Z,3.90
2018-12-26T12:27:34.578Z,3.90
2018-12-26T12:30:15.769Z,3.90
2018-12-26T12:32:57.023Z,3.90
2018-12-26T12:35:38.102Z,3.90
2018-12-26T12:38:19.857Z,4.00
2018-12-26T12:41:01.251Z,4.00
2018-12-26T12:43:42.632Z,4.00
2018-12-26T12:46:23.562Z,4.00
2018-12-26T12:49:07.045Z,4.00
2018-12-26T12:51:48.786Z,4.00
2018-12-26T12:54:29.955Z,4.00
2018-12-26T12:57:11.661Z,4.00
2018-12-26T12:59:53.299Z,4.00
2018-12-26T13:02:35.011Z,4.00
2018-12-26T13:05:16.624Z,4.00
2018-12-26T13:07:57.888Z,4.00
2018-12-26T13:10:38.877Z,4.00
2018-12-26T13:13:20.256Z,4.00
2018-12-26T13:16:01.933Z,4.00
2018-12-26T13:18:43.154Z,4.00
2018-12-26T13:21:24.858Z,4.00
2018-12-26T13:24:06.237Z,4.00
2018-12-26T13:26:48.026Z,4.00
2018-12-26T13:29:34.117Z,4.00
2018-12-26T13:32:16.115Z,4.00
2018-12-26T13:34:57.105Z,4.00
2018-12-26T13:37:38.763Z,4.00
2018-12-26T13:40:21.072Z,4.10
2018-12-26T13:43:02.783Z,4.10
2018-12-26T13:45:43.960Z,4.10
2018-12-26T13:48:25.609Z,4.00
2018-12-26T13:51:06.805Z,4.00
2018-12-26T13:53:47.973Z,4.00
2018-12-26T13:56:29.826Z,4.00
2018-12-26T13:59:11.102Z,4.00
2018-12-26T14:01:52.322Z,4.10
2018-12-26T14:04:34.367Z,4.10
2018-12-26T14:07:15.374Z,4.00
2018-12-26T14:09:57.170Z,4.00
2018-12-26T14:12:38.922Z,4.10
2018-12-26T14:15:20.732Z,4.00
2018-12-26T14:18:02.008Z,4.00
2018-12-26T14:20:43.802Z,4.00
2018-12-26T14:23:25.203Z,4.00
2018-12-26T14:26:06.486Z,4.00
2018-12-26T14:28:47.756Z,4.00
2018-12-26T14:31:29.240Z,4.00
2018-12-26T14:34:10.758Z,4.00
2018-12-26T14:36:52.023Z,4.00
2018-12-26T14:39:33.753Z,4.00
2018-12-26T14:42:16.717Z,4.00
2018-12-26T14:45:00.920Z,4.00
2018-12-26T14:47:42.630Z,4.00
2018-12-26T14:50:24.102Z,4.00
2018-12-26T14:53:05.287Z,4.00
2018-12-26T14:55:47.013Z,4.00
2018-12-26T14:58:28.767Z,4.00
2018-12-26T15:01:10.125Z,4.00
2018-12-26T15:03:51.858Z,3.90
2018-12-26T15:06:33.243Z,3.90
2018-12-26T15:09:14.560Z,3.90
2018-12-26T15:11:56.341Z,3.90
2018-12-26T15:14:37.430Z,4.00
2018-12-26T15:17:19.045Z,4.00
2018-12-26T15:20:00.817Z,4.00
2018-12-26T15:22:42.450Z,3.90
2018-12-26T15:25:25.486Z,4.00
2018-12-26T15:28:07.017Z,4.00
2018-12-26T15:30:48.714Z,4.00
2018-12-26T15:33:29.846Z,4.00
2018-12-26T15:36:11.574Z,4.00
2018-12-26T15:38:52.864Z,4.00
2018-12-26T15:41:35.421Z,4.00
2018-12-26T15:44:17.003Z,4.00
2018-12-26T15:46:58.770Z,4.00
2018-12-26T15:49:40.334Z,4.00
2018-12-26T15:52:21.666Z,4.00
2018-12-26T15:55:03.107Z,4.00
2018-12-26T15:57:44.758Z,4.00
2018-12-26T16:00:25.883Z,4.00
2018-12-26T16:03:07.615Z,4.00
2018-12-26T16:05:49.209Z,4.00
2018-12-26T16:08:21.479Z,4.00
2018-12-26T16:11:13.835Z,4.00
2018-12-26T16:16:52.323Z,4.00
2018-12-26T16:19:40.948Z,4.00
2018-12-26T16:22:29.698Z,4.00
2018-12-26T16:25:18.165Z,4.10
2018-12-26T16:28:06.779Z,4.00
2018-12-26T16:30:55.326Z,4.10
2018-12-26T16:33:43.919Z,4.10
2018-12-26T16:36:32.622Z,4.10
2018-12-26T16:39:21.085Z,4.10
2018-12-26T16:42:09.586Z,4.10
2018-12-26T16:44:51.273Z,4.10
2018-12-26T16:47:33.192Z,4.10
2018-12-26T16:50:14.372Z,4.10
2018-12-26T16:52:56.083Z,4.10
2018-12-26T16:55:37.956Z,4.10
2018-12-26T16:58:19.497Z,4.10
2018-12-26T17:01:01.426Z,4.10
2018-12-26T17:03:42.838Z,4.10
2018-12-26T17:06:23.855Z,4.10
2018-12-26T17:09:07.213Z,4.00
2018-12-26T17:11:48.729Z,4.00
2018-12-26T17:14:29.926Z,4.00
2018-12-26T17:17:11.458Z,4.00
2018-12-26T17:19:53.230Z,4.00
2018-12-26T17:22:22.556Z,4.00
2018-12-26T17:25:11.130Z,4.00
2018-12-26T17:27:59.728Z,4.00
2018-12-26T17:30:49.179Z,4.00
2018-12-26T17:33:59.046Z,4.00
2018-12-26T17:39:43.511Z,4.10
2018-12-26T17:42:32.041Z,4.00
2018-12-26T17:45:13.498Z,4.00
2018-12-26T17:47:56.080Z,4.00
2018-12-26T17:50:38.258Z,4.00
2018-12-26T17:53:21.602Z,4.00
2018-12-26T17:56:04.020Z,4.00
2018-12-26T17:58:50.330Z,4.00
2018-12-26T18:01:53.868Z,4.00
2018-12-26T18:04:35.240Z,4.00
2018-12-26T18:07:17.149Z,4.00
2018-12-26T18:09:59.017Z,4.00
2018-12-26T18:12:41.036Z,4.00
2018-12-26T18:15:23.120Z,4.00
2018-12-26T18:18:05.151Z,4.00
2018-12-26T18:20:47.051Z,4.00
2018-12-26T18:23:28.670Z,4.00
2018-12-26T18:26:10.576Z,4.00
2018-12-26T18:28:52.091Z,4.00
2018-12-26T18:31:33.572Z,4.00
2018-12-26T18:34:14.765Z,4.00
2018-12-26T18:36:56.283Z,4.00
2018-12-26T18:39:37.765Z,4.00
2018-12-26T18:42:19.240Z,4.00
2018-12-26T18:45:00.384Z,4.00
2018-12-26T18:47:42.136Z,4.00
2018-12-26T18:50:23.842Z,4.00
2018-12-26T18:53:06.342Z,4.00
2018-12-26T18:55:50.023Z,4.00
2018-12-26T18:58:32.213Z,4.00
2018-12-26T19:01:14.517Z,4.00
2018-12-26T19:03:57.002Z,4.00
2018-12-26T19:06:38.794Z,4.00
2018-12-26T19:09:20.778Z,4.00
2018-12-26T19:12:02.255Z,4.00
2018-12-26T19:14:44.179Z,4.10
2018-12-26T19:17:26.611Z,4.00
2018-12-26T19:20:09.010Z,4.10
2018-12-26T19:22:50.747Z,4.10
2018-12-26T19:25:33.120Z,4.00
2018-12-26T19:28:14.925Z,4.00
2018-12-26T19:30:56.775Z,4.00
2018-12-26T19:33:38.691Z,4.00
2018-12-26T19:36:20.583Z,4.00
2018-12-26T19:39:03.789Z,4.00
2018-12-26T19:41:45.780Z,4.00
2018-12-26T19:44:27.313Z,4.00
2018-12-26T19:47:09.001Z,4.00
2018-12-26T19:49:50.832Z,4.00
2018-12-26T19:52:32.802Z,4.00
2018-12-26T19:55:14.868Z,4.00
2018-12-26T19:57:57.488Z,4.00
2018-12-26T20:00:39.543Z,4.00
2018-12-26T20:03:21.591Z,4.00
2018-12-26T20:06:03.390Z,4.00
2018-12-26T20:08:45.388Z,3.90
2018-12-26T20:11:27.078Z,4.00
2018-12-26T20:14:09.071Z,3.90
2018-12-26T20:16:51.247Z,4.00
2018-12-26T20:19:33.038Z,4.00
2018-12-26T20:22:15.272Z,4.00
2018-12-26T20:24:56.862Z,4.00
2018-12-26T20:27:39.228Z,4.00
2018-12-26T20:30:21.302Z,4.00
2018-12-26T20:33:03.018Z,4.00
2018-12-26T20:35:45.413Z,4.00
2018-12-26T20:38:27.262Z,4.00
2018-12-26T20:41:08.922Z,4.00
2018-12-26T20:43:51.312Z,4.00
2018-12-26T20:46:33.614Z,4.00
2018-12-26T20:49:16.370Z,4.00
2018-12-26T20:51:58.635Z,4.00
2018-12-26T20:54:40.754Z,4.00
2018-12-26T20:57:23.179Z,4.10
2018-12-26T21:00:05.881Z,4.00
2018-12-26T21:02:48.034Z,4.10
2018-12-26T21:05:30.406Z,4.10
2018-12-26T21:08:11.841Z,4.10
2018-12-26T21:10:53.581Z,4.00
2018-12-26T21:13:35.366Z,4.10
2018-12-26T21:16:17.685Z,4.10
2018-12-26T21:18:59.907Z,4.10
2018-12-26T21:21:42.549Z,4.10
2018-12-26T21:24:23.996Z,4.10
2018-12-26T21:27:06.527Z,4.10
2018-12-26T21:29:48.517Z,4.10
2018-12-26T21:32:30.417Z,4.10
2018-12-26T21:35:12.415Z,4.10
2018-12-26T21:37:54.713Z,4.10
2018-12-26T21:40:36.488Z,4.10
2018-12-26T21:43:18.786Z,4.00
2018-12-26T21:46:00.606Z,4.10
2018-12-26T21:48:42.949Z,4.10
2018-12-26T21:51:24.853Z,4.10
2018-12-26T21:54:06.773Z,4.10
2018-12-26T21:56:48.378Z,4.10
2018-12-26T21:59:31.322Z,4.10
2018-12-26T22:02:13.407Z,4.10
2018-12-26T22:04:54.997Z,4.10
2018-12-26T22:07:37.146Z,4.10
2018-12-26T22:10:19.548Z,4.10
2018-12-26T22:13:01.517Z,4.10
2018-12-26T22:15:43.384Z,4.10
2018-12-26T22:18:25.851Z,4.10
2018-12-26T22:21:07.771Z,4.10
2018-12-26T22:23:50.320Z,4.10
2018-12-26T22:26:32.498Z,4.10
2018-12-26T22:29:14.900Z,4.10
2018-12-26T22:31:57.159Z,4.10
2018-12-26T22:34:38.893Z,4.10
2018-12-26T22:37:20.448Z,4.00
2018-12-26T22:40:02.828Z,4.00
2018-12-26T22:42:46.154Z,4.00
2018-12-26T22:45:28.583Z,4.00
2018-12-26T22:48:29.996Z,4.00
2018-12-26T22:51:11.711Z,4.00
2018-12-26T22:53:53.983Z,4.00
2018-12-26T22:56:36.404Z,4.00
2018-12-26T22:59:17.991Z,3.90
2018-12-26T23:01:59.644Z,3.80
2018-12-26T23:05:01.365Z,3.80
2018-12-26T23:08:02.899Z,3.70
2018-12-26T23:11:04.630Z,3.60
2018-12-26T23:14:05.807Z,3.60
2018-12-26T23:17:07.587Z,3.60
2018-12-26T23:19:49.106Z,3.60
2018-12-26T23:22:31.336Z,3.60
2018-12-26T23:25:12.890Z,3.60
2018-12-26T23:27:54.767Z,3.50
2018-12-26T23:30:36.883Z,3.50
2018-12-26T23:33:19.609Z,3.40
2018-12-26T23:36:01.713Z,3.30
2018-12-26T23:38:43.750Z,3.30
2018-12-26T23:41:25.986Z,3.20
2018-12-26T23:44:07.448Z,3.20
2018-12-26T23:46:49.037Z,3.20
2018-12-26T23:49:30.766Z,3.20
2018-12-26T23:52:12.514Z,3.10
2018-12-26T23:54:54.070Z,3.10
2018-12-26T23:57:36.002Z,3.10
